sensor_id;sensor_type;location;lat;lon;timestamp;pressure;altitude;pressure_sealevel;temperature;humidity
63691;BME280;49837;57.280;27.070;2023-07-02T00:00:13;98650.83;;;13.64;79.4
63691;BME280;49837;57.280;27.070;2023-07-02T00:01:13;98652.69;;;13.67;79.32
63691;BME280;49837;57.280;27.070;2023-07-02T00:02:13;98651.7;;;13.7;79.36
63691;BME280;49837;57.280;27.070;2023-07-02T00:03:14;98651.22;;;13.71;78.97
63691;BME280;49837;57.280;27.070;2023-07-02T00:04:15;98653.29;;;13.64;79.07
63691;BME280;49837;57.280;27.070;2023-07-02T00:05:15;98651.73;;;13.59;78.53
63691;BME280;49837;57.280;27.070;2023-07-02T00:06:15;98651.65;;;13.61;78.89
63691;BME280;49837;57.280;27.070;2023-07-02T00:07:15;98655.44;;;13.62;78.61
63691;BME280;49837;57.280;27.070;2023-07-02T00:08:16;98649.52;;;13.62;78.55
63691;BME280;49837;57.280;27.070;2023-07-02T00:09:16;98650.2;;;13.65;78.31
63691;BME280;49837;57.280;27.070;2023-07-02T00:10:17;98653.72;;;13.66;78.81
63691;BME280;49837;57.280;27.070;2023-07-02T00:11:17;98653.39;;;13.65;79.0
63691;BME280;49837;57.280;27.070;2023-07-02T00:12:18;98649.59;;;13.65;78.81
63691;BME280;49837;57.280;27.070;2023-07-02T00:13:18;98650.02;;;13.67;78.28
63691;BME280;49837;57.280;27.070;2023-07-02T00:14:19;98649.33;;;13.68;78.99
63691;BME280;49837;57.280;27.070;2023-07-02T00:15:19;98644.98;;;13.68;78.73
63691;BME280;49837;57.280;27.070;2023-07-02T00:16:19;98645.5;;;13.68;78.42
63691;BME280;49837;57.280;27.070;2023-07-02T00:17:20;98642.44;;;13.65;78.77
63691;BME280;49837;57.280;27.070;2023-07-02T00:18:20;98642.23;;;13.64;79.02
63691;BME280;49837;57.280;27.070;2023-07-02T00:19:21;98642.73;;;13.65;79.12
63691;BME280;49837;57.280;27.070;2023-07-02T00:20:22;98640.62;;;13.67;79.05
63691;BME280;49837;57.280;27.070;2023-07-02T00:21:22;98643.23;;;13.69;79.24
63691;BME280;49837;57.280;27.070;2023-07-02T00:22:22;98644.06;;;13.71;79.47
63691;BME280;49837;57.280;27.070;2023-07-02T00:23:23;98643.08;;;13.69;79.01
63691;BME280;49837;57.280;27.070;2023-07-02T00:24:23;98642.66;;;13.65;79.26
63691;BME280;49837;57.280;27.070;2023-07-02T00:25:23;98644.61;;;13.66;79.04
63691;BME280;49837;57.280;27.070;2023-07-02T00:26:24;98643.57;;;13.64;79.76
63691;BME280;49837;57.280;27.070;2023-07-02T00:27:24;98641.91;;;13.64;79.79
63691;BME280;49837;57.280;27.070;2023-07-02T00:28:25;98640.38;;;13.67;79.37
63691;BME280;49837;57.280;27.070;2023-07-02T00:29:25;98639.75;;;13.71;79.43
63691;BME280;49837;57.280;27.070;2023-07-02T00:30:26;98641.81;;;13.72;78.82
63691;BME280;49837;57.280;27.070;2023-07-02T00:31:26;98641.44;;;13.75;79.63
63691;BME280;49837;57.280;27.070;2023-07-02T00:32:26;98636.95;;;13.72;79.8
63691;BME280;49837;57.280;27.070;2023-07-02T00:33:27;98637.08;;;13.72;80.07
63691;BME280;49837;57.280;27.070;2023-07-02T00:34:28;98635.19;;;13.69;79.31
63691;BME280;49837;57.280;27.070;2023-07-02T00:35:28;98635.88;;;13.73;80.0
63691;BME280;49837;57.280;27.070;2023-07-02T00:36:30;98633.55;;;13.72;80.0
63691;BME280;49837;57.280;27.070;2023-07-02T00:37:29;98629.88;;;13.75;79.34
63691;BME280;49837;57.280;27.070;2023-07-02T00:38:30;98635.78;;;13.81;79.22
63691;BME280;49837;57.280;27.070;2023-07-02T00:39:30;98631.98;;;13.82;79.02
63691;BME280;49837;57.280;27.070;2023-07-02T00:40:31;98630.92;;;13.81;79.27
63691;BME280;49837;57.280;27.070;2023-07-02T00:41:31;98628.08;;;13.85;79.26
63691;BME280;49837;57.280;27.070;2023-07-02T00:42:32;98625.12;;;13.86;79.83
63691;BME280;49837;57.280;27.070;2023-07-02T00:43:32;98624.39;;;13.85;79.72
63691;BME280;49837;57.280;27.070;2023-07-02T00:44:32;98621.09;;;13.81;79.72
63691;BME280;49837;57.280;27.070;2023-07-02T00:45:33;98625.38;;;13.82;79.78
63691;BME280;49837;57.280;27.070;2023-07-02T00:46:33;98625.31;;;13.84;79.43
63691;BME280;49837;57.280;27.070;2023-07-02T00:47:34;98622.97;;;13.88;79.21
63691;BME280;49837;57.280;27.070;2023-07-02T00:48:34;98624.16;;;13.86;79.99
63691;BME280;49837;57.280;27.070;2023-07-02T00:49:35;98623.84;;;13.85;79.58
63691;BME280;49837;57.280;27.070;2023-07-02T00:50:35;98622.55;;;13.85;79.25
63691;BME280;49837;57.280;27.070;2023-07-02T00:51:36;98623.44;;;13.89;78.73
63691;BME280;49837;57.280;27.070;2023-07-02T00:52:36;98624.31;;;13.96;78.64
63691;BME280;49837;57.280;27.070;2023-07-02T00:53:36;98621.26;;;13.99;78.69
63691;BME280;49837;57.280;27.070;2023-07-02T00:54:37;98623.09;;;14.01;79.71
63691;BME280;49837;57.280;27.070;2023-07-02T00:55:38;98621.58;;;14.01;79.59
63691;BME280;49837;57.280;27.070;2023-07-02T00:56:39;98617.75;;;13.98;78.85
63691;BME280;49837;57.280;27.070;2023-07-02T00:57:39;98618.5;;;13.96;80.0
63691;BME280;49837;57.280;27.070;2023-07-02T00:58:41;98620.17;;;13.96;79.88
63691;BME280;49837;57.280;27.070;2023-07-02T00:59:43;98619.08;;;13.95;79.92
63691;BME280;49837;57.280;27.070;2023-07-02T01:00:40;98620.73;;;13.97;79.65
63691;BME280;49837;57.280;27.070;2023-07-02T01:01:41;98616.83;;;13.96;79.62
63691;BME280;49837;57.280;27.070;2023-07-02T01:02:42;98617.91;;;13.99;78.89
63691;BME280;49837;57.280;27.070;2023-07-02T01:04:02;98616.55;;;14.02;79.07
63691;BME280;49837;57.280;27.070;2023-07-02T01:04:47;98621.58;;;14.01;79.01
63691;BME280;49837;57.280;27.070;2023-07-02T01:05:46;98616.94;;;14.0;78.98
63691;BME280;49837;57.280;27.070;2023-07-02T01:06:46;98618.62;;;13.99;79.36
63691;BME280;49837;57.280;27.070;2023-07-02T01:07:47;98619.18;;;13.96;79.34
63691;BME280;49837;57.280;27.070;2023-07-02T01:08:47;98619.69;;;13.96;79.2
63691;BME280;49837;57.280;27.070;2023-07-02T01:09:48;98618.39;;;13.96;79.81
63691;BME280;49837;57.280;27.070;2023-07-02T01:10:48;98616.65;;;13.93;79.36
63691;BME280;49837;57.280;27.070;2023-07-02T01:12:51;98613.05;;;13.89;79.42
63691;BME280;49837;57.280;27.070;2023-07-02T01:13:53;98615.04;;;13.96;79.19
63691;BME280;49837;57.280;27.070;2023-07-02T01:14:53;98615.23;;;13.98;79.23
63691;BME280;49837;57.280;27.070;2023-07-02T01:15:54;98611.2;;;13.95;79.67
63691;BME280;49837;57.280;27.070;2023-07-02T01:16:55;98612.62;;;13.93;79.43
63691;BME280;49837;57.280;27.070;2023-07-02T01:17:54;98611.14;;;13.95;79.64
63691;BME280;49837;57.280;27.070;2023-07-02T01:18:55;98617.13;;;13.94;80.32
63691;BME280;49837;57.280;27.070;2023-07-02T01:19:56;98614.67;;;13.91;80.31
63691;BME280;49837;57.280;27.070;2023-07-02T01:20:56;98614.94;;;13.9;79.77
63691;BME280;49837;57.280;27.070;2023-07-02T01:21:56;98614.8;;;13.93;80.23
63691;BME280;49837;57.280;27.070;2023-07-02T01:22:57;98615.89;;;13.95;80.39
63691;BME280;49837;57.280;27.070;2023-07-02T01:23:57;98618.04;;;13.93;80.52
63691;BME280;49837;57.280;27.070;2023-07-02T01:24:58;98615.99;;;13.88;80.73
63691;BME280;49837;57.280;27.070;2023-07-02T01:25:58;98613.88;;;13.87;80.96
63691;BME280;49837;57.280;27.070;2023-07-02T01:26:58;98615.16;;;13.87;80.74
63691;BME280;49837;57.280;27.070;2023-07-02T01:27:59;98615.2;;;13.87;81.31
63691;BME280;49837;57.280;27.070;2023-07-02T01:29:20;98612.36;;;13.86;81.27
63691;BME280;49837;57.280;27.070;2023-07-02T01:30:03;98610.24;;;13.86;80.95
63691;BME280;49837;57.280;27.070;2023-07-02T01:31:04;98608.7;;;13.88;81.22
63691;BME280;49837;57.280;27.070;2023-07-02T01:32:03;98610.35;;;13.86;81.09
63691;BME280;49837;57.280;27.070;2023-07-02T01:33:04;98607.98;;;13.84;81.04
63691;BME280;49837;57.280;27.070;2023-07-02T01:34:04;98606.19;;;13.82;81.43
63691;BME280;49837;57.280;27.070;2023-07-02T01:35:05;98606.45;;;13.77;81.29
63691;BME280;49837;57.280;27.070;2023-07-02T01:36:06;98606.72;;;13.78;81.21
63691;BME280;49837;57.280;27.070;2023-07-02T01:37:06;98605.7;;;13.83;81.35
63691;BME280;49837;57.280;27.070;2023-07-02T01:38:06;98608.34;;;13.82;81.58
63691;BME280;49837;57.280;27.070;2023-07-02T01:39:07;98606.45;;;13.83;80.91
63691;BME280;49837;57.280;27.070;2023-07-02T01:40:08;98607.09;;;13.87;81.31
63691;BME280;49837;57.280;27.070;2023-07-02T01:41:08;98606.85;;;13.89;81.68
63691;BME280;49837;57.280;27.070;2023-07-02T01:43:11;98607.17;;;13.86;81.65
63691;BME280;49837;57.280;27.070;2023-07-02T01:44:12;98605.62;;;13.85;81.43
63691;BME280;49837;57.280;27.070;2023-07-02T01:45:12;98603.52;;;13.84;81.75
63691;BME280;49837;57.280;27.070;2023-07-02T01:46:13;98603.98;;;13.82;81.1
63691;BME280;49837;57.280;27.070;2023-07-02T01:47:13;98603.35;;;13.83;81.27
63691;BME280;49837;57.280;27.070;2023-07-02T01:48:14;98602.16;;;13.82;81.51
63691;BME280;49837;57.280;27.070;2023-07-02T01:49:15;98602.64;;;13.83;81.52
63691;BME280;49837;57.280;27.070;2023-07-02T01:50:15;98602.59;;;13.78;81.74
63691;BME280;49837;57.280;27.070;2023-07-02T01:51:15;98599.89;;;13.75;82.21
63691;BME280;49837;57.280;27.070;2023-07-02T01:52:16;98600.2;;;13.77;81.83
63691;BME280;49837;57.280;27.070;2023-07-02T01:53:16;98599.43;;;13.76;82.48
63691;BME280;49837;57.280;27.070;2023-07-02T01:54:20;98600.66;;;13.74;81.66
63691;BME280;49837;57.280;27.070;2023-07-02T01:55:18;98599.69;;;13.77;82.04
63691;BME280;49837;57.280;27.070;2023-07-02T01:56:18;98601.47;;;13.78;81.01
63691;BME280;49837;57.280;27.070;2023-07-02T01:57:19;98598.84;;;13.84;80.78
63691;BME280;49837;57.280;27.070;2023-07-02T01:58:19;98602.64;;;13.86;81.29
63691;BME280;49837;57.280;27.070;2023-07-02T01:59:20;98599.3;;;13.78;81.79
63691;BME280;49837;57.280;27.070;2023-07-02T02:00:21;98601.12;;;13.78;81.88
63691;BME280;49837;57.280;27.070;2023-07-02T02:01:21;98603.9;;;13.8;81.81
63691;BME280;49837;57.280;27.070;2023-07-02T02:02:21;98604.62;;;13.8;81.54
63691;BME280;49837;57.280;27.070;2023-07-02T02:03:22;98603.23;;;13.81;82.04
63691;BME280;49837;57.280;27.070;2023-07-02T02:04:22;98605.5;;;13.77;82.37
63691;BME280;49837;57.280;27.070;2023-07-02T02:05:23;98604.03;;;13.7;82.49
63691;BME280;49837;57.280;27.070;2023-07-02T02:06:24;98603.33;;;13.67;82.54
63691;BME280;49837;57.280;27.070;2023-07-02T02:07:24;98605.03;;;13.69;82.6
63691;BME280;49837;57.280;27.070;2023-07-02T02:08:24;98603.07;;;13.75;81.53
63691;BME280;49837;57.280;27.070;2023-07-02T02:09:25;98608.09;;;13.8;81.89
63691;BME280;49837;57.280;27.070;2023-07-02T02:10:25;98607.59;;;13.81;82.1
63691;BME280;49837;57.280;27.070;2023-07-02T02:11:26;98603.73;;;13.81;82.18
63691;BME280;49837;57.280;27.070;2023-07-02T02:12:27;98600.69;;;13.78;81.85
63691;BME280;49837;57.280;27.070;2023-07-02T02:13:28;98603.66;;;13.78;82.83
63691;BME280;49837;57.280;27.070;2023-07-02T02:14:28;98600.78;;;13.75;82.79
63691;BME280;49837;57.280;27.070;2023-07-02T02:15:29;98600.38;;;13.72;82.46
63691;BME280;49837;57.280;27.070;2023-07-02T02:16:30;98600.36;;;13.69;82.84
63691;BME280;49837;57.280;27.070;2023-07-02T02:17:30;98595.16;;;13.69;82.58
63691;BME280;49837;57.280;27.070;2023-07-02T02:18:30;98598.66;;;13.74;82.22
63691;BME280;49837;57.280;27.070;2023-07-02T02:19:31;98600.38;;;13.77;81.89
63691;BME280;49837;57.280;27.070;2023-07-02T02:20:31;98602.96;;;13.79;81.97
63691;BME280;49837;57.280;27.070;2023-07-02T02:21:32;98605.06;;;13.81;81.9
63691;BME280;49837;57.280;27.070;2023-07-02T02:22:32;98603.16;;;13.81;81.97
63691;BME280;49837;57.280;27.070;2023-07-02T02:23:33;98606.59;;;13.83;81.36
63691;BME280;49837;57.280;27.070;2023-07-02T02:24:33;98603.55;;;13.85;81.59
63691;BME280;49837;57.280;27.070;2023-07-02T02:25:33;98605.56;;;13.85;82.04
63691;BME280;49837;57.280;27.070;2023-07-02T02:26:34;98602.58;;;13.87;82.06
63691;BME280;49837;57.280;27.070;2023-07-02T02:27:34;98605.95;;;13.85;81.91
63691;BME280;49837;57.280;27.070;2023-07-02T02:28:35;98602.71;;;13.85;81.91
63691;BME280;49837;57.280;27.070;2023-07-02T02:29:35;98605.92;;;13.87;81.68
63691;BME280;49837;57.280;27.070;2023-07-02T02:30:36;98610.16;;;13.89;81.74
63691;BME280;49837;57.280;27.070;2023-07-02T02:31:36;98610.47;;;13.87;82.3
63691;BME280;49837;57.280;27.070;2023-07-02T02:32:36;98609.97;;;13.87;81.67
63691;BME280;49837;57.280;27.070;2023-07-02T02:33:37;98606.38;;;13.92;82.01
63691;BME280;49837;57.280;27.070;2023-07-02T02:34:37;98607.05;;;13.92;81.81
63691;BME280;49837;57.280;27.070;2023-07-02T02:35:41;98607.22;;;13.92;81.32
63691;BME280;49837;57.280;27.070;2023-07-02T02:36:40;98608.58;;;13.94;81.6
63691;BME280;49837;57.280;27.070;2023-07-02T02:37:40;98605.13;;;13.93;81.73
63691;BME280;49837;57.280;27.070;2023-07-02T02:38:41;98604.33;;;13.95;81.93
63691;BME280;49837;57.280;27.070;2023-07-02T02:39:42;98602.08;;;13.96;81.72
63691;BME280;49837;57.280;27.070;2023-07-02T02:40:42;98603.98;;;13.96;81.35
63691;BME280;49837;57.280;27.070;2023-07-02T02:41:42;98602.75;;;13.96;81.37
63691;BME280;49837;57.280;27.070;2023-07-02T02:42:45;98604.84;;;13.98;81.42
63691;BME280;49837;57.280;27.070;2023-07-02T02:43:45;98602.39;;;14.02;81.91
63691;BME280;49837;57.280;27.070;2023-07-02T02:44:46;98602.55;;;13.98;82.12
63691;BME280;49837;57.280;27.070;2023-07-02T02:45:46;98600.05;;;13.93;81.94
63691;BME280;49837;57.280;27.070;2023-07-02T02:46:46;98601.91;;;13.96;81.49
63691;BME280;49837;57.280;27.070;2023-07-02T02:47:47;98601.96;;;14.0;82.06
63691;BME280;49837;57.280;27.070;2023-07-02T02:48:47;98605.41;;;13.98;82.64
63691;BME280;49837;57.280;27.070;2023-07-02T02:49:47;98606.49;;;13.96;82.57
63691;BME280;49837;57.280;27.070;2023-07-02T02:50:49;98605.98;;;14.02;81.87
63691;BME280;49837;57.280;27.070;2023-07-02T02:51:49;98606.92;;;14.01;82.07
63691;BME280;49837;57.280;27.070;2023-07-02T02:52:50;98607.78;;;14.0;81.72
63691;BME280;49837;57.280;27.070;2023-07-02T02:53:50;98608.55;;;14.01;81.47
63691;BME280;49837;57.280;27.070;2023-07-02T02:54:51;98605.35;;;14.03;81.78
63691;BME280;49837;57.280;27.070;2023-07-02T02:55:51;98604.79;;;14.11;81.9
63691;BME280;49837;57.280;27.070;2023-07-02T02:56:52;98601.38;;;14.11;81.87
63691;BME280;49837;57.280;27.070;2023-07-02T02:57:52;98602.86;;;14.13;81.93
63691;BME280;49837;57.280;27.070;2023-07-02T02:58:53;98602.55;;;14.15;82.47
63691;BME280;49837;57.280;27.070;2023-07-02T02:59:53;98606.09;;;14.14;82.35
63691;BME280;49837;57.280;27.070;2023-07-02T03:00:54;98603.86;;;14.12;82.27
63691;BME280;49837;57.280;27.070;2023-07-02T03:01:54;98602.43;;;14.12;81.82
63691;BME280;49837;57.280;27.070;2023-07-02T03:02:54;98599.8;;;14.12;81.81
63691;BME280;49837;57.280;27.070;2023-07-02T03:03:55;98598.91;;;14.15;81.81
63691;BME280;49837;57.280;27.070;2023-07-02T03:04:55;98599.57;;;14.11;81.24
63691;BME280;49837;57.280;27.070;2023-07-02T03:05:56;98597.94;;;14.08;81.85
63691;BME280;49837;57.280;27.070;2023-07-02T03:06:56;98598.48;;;14.14;81.49
63691;BME280;49837;57.280;27.070;2023-07-02T03:07:57;98596.48;;;14.15;81.15
63691;BME280;49837;57.280;27.070;2023-07-02T03:08:57;98594.6;;;14.16;81.48
63691;BME280;49837;57.280;27.070;2023-07-02T03:09:58;98593.77;;;14.19;81.84
63691;BME280;49837;57.280;27.070;2023-07-02T03:10:58;98593.45;;;14.22;81.82
63691;BME280;49837;57.280;27.070;2023-07-02T03:11:59;98595.42;;;14.22;81.97
63691;BME280;49837;57.280;27.070;2023-07-02T03:12:59;98591.62;;;14.22;82.02
63691;BME280;49837;57.280;27.070;2023-07-02T03:13:59;98594.06;;;14.22;81.87
63691;BME280;49837;57.280;27.070;2023-07-02T03:15:00;98592.95;;;14.18;80.91
63691;BME280;49837;57.280;27.070;2023-07-02T03:16:01;98594.86;;;14.21;81.79
63691;BME280;49837;57.280;27.070;2023-07-02T03:17:02;98596.22;;;14.16;81.95
63691;BME280;49837;57.280;27.070;2023-07-02T03:18:01;98593.48;;;14.23;81.27
63691;BME280;49837;57.280;27.070;2023-07-02T03:19:02;98593.92;;;14.25;81.58
63691;BME280;49837;57.280;27.070;2023-07-02T03:20:03;98595.14;;;14.26;81.33
63691;BME280;49837;57.280;27.070;2023-07-02T03:21:03;98594.22;;;14.31;81.0
63691;BME280;49837;57.280;27.070;2023-07-02T03:22:03;98591.24;;;14.32;81.7
63691;BME280;49837;57.280;27.070;2023-07-02T03:23:05;98591.48;;;14.34;80.71
63691;BME280;49837;57.280;27.070;2023-07-02T03:24:04;98590.06;;;14.37;81.4
63691;BME280;49837;57.280;27.070;2023-07-02T03:25:08;98590.05;;;14.37;80.93
63691;BME280;49837;57.280;27.070;2023-07-02T03:26:06;98587.7;;;14.42;80.82
63691;BME280;49837;57.280;27.070;2023-07-02T03:27:07;98588.12;;;14.42;80.56
63691;BME280;49837;57.280;27.070;2023-07-02T03:28:07;98584.09;;;14.4;80.46
63691;BME280;49837;57.280;27.070;2023-07-02T03:29:07;98584.67;;;14.41;80.78
63691;BME280;49837;57.280;27.070;2023-07-02T03:30:08;98581.17;;;14.41;80.95
63691;BME280;49837;57.280;27.070;2023-07-02T03:31:08;98578.4;;;14.43;80.85
63691;BME280;49837;57.280;27.070;2023-07-02T03:32:08;98579.34;;;14.47;80.32
63691;BME280;49837;57.280;27.070;2023-07-02T03:33:09;98577.2;;;14.52;79.98
63691;BME280;49837;57.280;27.070;2023-07-02T03:34:09;98577.2;;;14.51;80.84
63691;BME280;49837;57.280;27.070;2023-07-02T03:35:11;98578.47;;;14.45;80.16
63691;BME280;49837;57.280;27.070;2023-07-02T03:36:10;98578.8;;;14.46;81.0
63691;BME280;49837;57.280;27.070;2023-07-02T03:37:11;98581.75;;;14.46;81.3
63691;BME280;49837;57.280;27.070;2023-07-02T03:38:11;98575.75;;;14.57;81.12
63691;BME280;49837;57.280;27.070;2023-07-02T03:39:12;98578.27;;;14.59;80.33
63691;BME280;49837;57.280;27.070;2023-07-02T03:40:12;98579.66;;;14.58;80.0
63691;BME280;49837;57.280;27.070;2023-07-02T03:41:12;98579.67;;;14.61;80.19
63691;BME280;49837;57.280;27.070;2023-07-02T03:42:13;98578.41;;;14.65;80.62
63691;BME280;49837;57.280;27.070;2023-07-02T03:43:13;98580.6;;;14.66;80.77
63691;BME280;49837;57.280;27.070;2023-07-02T03:44:14;98579.81;;;14.63;79.46
63691;BME280;49837;57.280;27.070;2023-07-02T03:45:14;98578.13;;;14.62;79.87
63691;BME280;49837;57.280;27.070;2023-07-02T03:46:15;98580.77;;;14.65;80.1
63691;BME280;49837;57.280;27.070;2023-07-02T03:47:15;98580.41;;;14.67;80.2
63691;BME280;49837;57.280;27.070;2023-07-02T03:48:16;98577.91;;;14.65;80.03
63691;BME280;49837;57.280;27.070;2023-07-02T03:49:16;98581.11;;;14.59;79.46
63691;BME280;49837;57.280;27.070;2023-07-02T03:50:17;98582.31;;;14.61;79.83
63691;BME280;49837;57.280;27.070;2023-07-02T03:51:17;98583.72;;;14.67;79.51
63691;BME280;49837;57.280;27.070;2023-07-02T03:52:20;98578.64;;;14.66;79.9
63691;BME280;49837;57.280;27.070;2023-07-02T03:53:18;98581.13;;;14.61;79.78
63691;BME280;49837;57.280;27.070;2023-07-02T03:54:19;98580.06;;;14.77;79.74
63691;BME280;49837;57.280;27.070;2023-07-02T03:55:19;98584.95;;;14.82;79.56
63691;BME280;49837;57.280;27.070;2023-07-02T03:56:20;98580.23;;;14.73;79.27
63691;BME280;49837;57.280;27.070;2023-07-02T03:57:20;98583.16;;;14.78;79.52
63691;BME280;49837;57.280;27.070;2023-07-02T03:58:23;98584.19;;;14.78;79.98
63691;BME280;49837;57.280;27.070;2023-07-02T03:59:21;98579.57;;;14.83;79.93
63691;BME280;49837;57.280;27.070;2023-07-02T04:00:21;98581.89;;;14.84;79.34
63691;BME280;49837;57.280;27.070;2023-07-02T04:01:22;98583.35;;;14.84;79.09
63691;BME280;49837;57.280;27.070;2023-07-02T04:02:22;98582.3;;;14.77;78.81
63691;BME280;49837;57.280;27.070;2023-07-02T04:03:23;98583.66;;;14.78;78.98
63691;BME280;49837;57.280;27.070;2023-07-02T04:04:23;98584.52;;;14.92;79.25
63691;BME280;49837;57.280;27.070;2023-07-02T04:05:23;98580.06;;;14.83;78.16
63691;BME280;49837;57.280;27.070;2023-07-02T04:06:24;98581.03;;;14.86;78.4
63691;BME280;49837;57.280;27.070;2023-07-02T04:07:24;98581.33;;;14.92;78.63
63691;BME280;49837;57.280;27.070;2023-07-02T04:08:26;98579.46;;;14.93;79.13
63691;BME280;49837;57.280;27.070;2023-07-02T04:09:25;98579.83;;;14.87;78.55
63691;BME280;49837;57.280;27.070;2023-07-02T04:10:26;98581.51;;;14.84;78.65
63691;BME280;49837;57.280;27.070;2023-07-02T04:11:26;98585.6;;;14.94;78.73
63691;BME280;49837;57.280;27.070;2023-07-02T04:12:27;98584.5;;;14.99;78.43
63691;BME280;49837;57.280;27.070;2023-07-02T04:13:27;98587.33;;;14.99;77.97
63691;BME280;49837;57.280;27.070;2023-07-02T04:14:28;98588.54;;;14.88;77.95
63691;BME280;49837;57.280;27.070;2023-07-02T04:15:28;98590.78;;;14.91;78.03
63691;BME280;49837;57.280;27.070;2023-07-02T04:16:29;98589.44;;;14.94;78.53
63691;BME280;49837;57.280;27.070;2023-07-02T04:17:30;98588.36;;;14.99;78.67
63691;BME280;49837;57.280;27.070;2023-07-02T04:18:29;98589.48;;;15.08;79.26
63691;BME280;49837;57.280;27.070;2023-07-02T04:19:30;98587.77;;;15.11;78.38
63691;BME280;49837;57.280;27.070;2023-07-02T04:20:30;98586.23;;;15.05;78.89
63691;BME280;49837;57.280;27.070;2023-07-02T04:21:31;98584.74;;;15.05;77.99
63691;BME280;49837;57.280;27.070;2023-07-02T04:22:31;98583.77;;;15.05;77.65
63691;BME280;49837;57.280;27.070;2023-07-02T04:23:32;98582.22;;;15.11;77.56
63691;BME280;49837;57.280;27.070;2023-07-02T04:24:33;98582.62;;;15.01;78.19
63691;BME280;49837;57.280;27.070;2023-07-02T04:25:33;98582.34;;;15.12;77.86
63691;BME280;49837;57.280;27.070;2023-07-02T04:26:35;98582.98;;;15.08;77.51
63691;BME280;49837;57.280;27.070;2023-07-02T04:27:38;98582.06;;;15.22;77.93
63691;BME280;49837;57.280;27.070;2023-07-02T04:28:43;98582.38;;;15.16;77.64
63691;BME280;49837;57.280;27.070;2023-07-02T04:29:44;98577.89;;;15.08;77.57
63691;BME280;49837;57.280;27.070;2023-07-02T04:30:43;98578.53;;;15.14;77.7
63691;BME280;49837;57.280;27.070;2023-07-02T04:31:44;98579.2;;;15.17;77.88
63691;BME280;49837;57.280;27.070;2023-07-02T04:32:44;98580.77;;;15.11;77.69
63691;BME280;49837;57.280;27.070;2023-07-02T04:33:46;98581.91;;;15.13;77.68
63691;BME280;49837;57.280;27.070;2023-07-02T04:34:45;98581.09;;;15.02;77.75
63691;BME280;49837;57.280;27.070;2023-07-02T04:35:46;98582.62;;;15.01;78.85
63691;BME280;49837;57.280;27.070;2023-07-02T04:36:46;98584.74;;;14.92;78.12
63691;BME280;49837;57.280;27.070;2023-07-02T04:37:47;98583.92;;;15.0;78.13
63691;BME280;49837;57.280;27.070;2023-07-02T04:38:47;98581.48;;;14.99;78.22
63691;BME280;49837;57.280;27.070;2023-07-02T04:39:47;98581.44;;;15.07;78.89
63691;BME280;49837;57.280;27.070;2023-07-02T04:40:48;98582.66;;;15.02;78.83
63691;BME280;49837;57.280;27.070;2023-07-02T04:41:48;98576.36;;;15.0;78.19
63691;BME280;49837;57.280;27.070;2023-07-02T04:42:49;98577.97;;;15.08;77.74
63691;BME280;49837;57.280;27.070;2023-07-02T04:43:49;98581.16;;;15.1;78.02
63691;BME280;49837;57.280;27.070;2023-07-02T04:44:50;98581.53;;;15.15;79.2
63691;BME280;49837;57.280;27.070;2023-07-02T04:45:50;98585.3;;;15.17;78.56
63691;BME280;49837;57.280;27.070;2023-07-02T04:46:51;98584.05;;;15.15;78.66
63691;BME280;49837;57.280;27.070;2023-07-02T04:47:51;98582.41;;;15.16;78.96
63691;BME280;49837;57.280;27.070;2023-07-02T04:48:52;98584.91;;;15.14;78.52
63691;BME280;49837;57.280;27.070;2023-07-02T04:49:52;98582.74;;;15.19;79.38
63691;BME280;49837;57.280;27.070;2023-07-02T04:50:52;98581.3;;;15.28;79.03
63691;BME280;49837;57.280;27.070;2023-07-02T04:51:53;98578.86;;;15.31;78.78
63691;BME280;49837;57.280;27.070;2023-07-02T04:52:53;98579.63;;;15.26;78.29
63691;BME280;49837;57.280;27.070;2023-07-02T04:53:54;98580.52;;;15.24;78.03
63691;BME280;49837;57.280;27.070;2023-07-02T04:54:54;98583.67;;;15.2;77.91
63691;BME280;49837;57.280;27.070;2023-07-02T04:55:55;98579.2;;;15.14;77.25
63691;BME280;49837;57.280;27.070;2023-07-02T04:56:55;98582.08;;;15.27;76.83
63691;BME280;49837;57.280;27.070;2023-07-02T04:57:56;98578.44;;;15.31;76.99
63691;BME280;49837;57.280;27.070;2023-07-02T04:58:56;98581.16;;;15.17;77.12
63691;BME280;49837;57.280;27.070;2023-07-02T04:59:57;98582.1;;;15.27;77.45
63691;BME280;49837;57.280;27.070;2023-07-02T05:00:57;98573.53;;;15.23;76.85
63691;BME280;49837;57.280;27.070;2023-07-02T05:01:58;98573.97;;;15.24;76.82
63691;BME280;49837;57.280;27.070;2023-07-02T05:02:58;98578.06;;;15.23;77.02
63691;BME280;49837;57.280;27.070;2023-07-02T05:03:59;98577.88;;;15.27;77.13
63691;BME280;49837;57.280;27.070;2023-07-02T05:04:59;98571.45;;;15.3;76.63
63691;BME280;49837;57.280;27.070;2023-07-02T05:06:00;98569.85;;;15.28;77.39
63691;BME280;49837;57.280;27.070;2023-07-02T05:07:00;98571.1;;;15.3;76.93
63691;BME280;49837;57.280;27.070;2023-07-02T05:08:01;98572.67;;;15.34;76.79
63691;BME280;49837;57.280;27.070;2023-07-02T05:09:01;98573.02;;;15.36;76.56
63691;BME280;49837;57.280;27.070;2023-07-02T05:10:01;98571.55;;;15.42;76.64
63691;BME280;49837;57.280;27.070;2023-07-02T05:11:02;98572.8;;;15.36;76.84
63691;BME280;49837;57.280;27.070;2023-07-02T05:12:03;98575.08;;;15.39;76.86
63691;BME280;49837;57.280;27.070;2023-07-02T05:13:03;98572.62;;;15.51;76.53
63691;BME280;49837;57.280;27.070;2023-07-02T05:14:03;98571.83;;;15.42;76.16
63691;BME280;49837;57.280;27.070;2023-07-02T05:15:05;98571.91;;;15.44;75.62
63691;BME280;49837;57.280;27.070;2023-07-02T05:16:04;98572.06;;;15.57;76.21
63691;BME280;49837;57.280;27.070;2023-07-02T05:17:05;98571.83;;;15.68;76.11
63691;BME280;49837;57.280;27.070;2023-07-02T05:18:06;98573.34;;;15.78;75.59
63691;BME280;49837;57.280;27.070;2023-07-02T05:19:06;98575.72;;;15.63;75.6